sensor_id;sensor_type;location;lat;lon;timestamp;P1;durP1;ratioP1;P2;durP2;ratioP2
75746;SDS011;64363;52.198;21.020;2023-03-01T00:01:07;121.85;;;44.83;;
75746;SDS011;64363;52.198;21.020;2023-03-01T00:03:35;130.30;;;44.13;;
75746;SDS011;64363;52.198;21.020;2023-03-01T00:06:02;117.18;;;41.30;;
75746;SDS011;64363;52.198;21.020;2023-03-01T00:08:28;136.13;;;44.42;;
75746;SDS011;64363;52.198;21.020;2023-03-01T00:13:38;128.07;;;43.70;;
75746;SDS011;64363;52.198;21.020;2023-03-01T00:16:06;133.57;;;47.05;;
75746;SDS011;64363;52.198;21.020;2023-03-01T00:18:33;139.73;;;46.63;;
75746;SDS011;64363;52.198;21.020;2023-03-01T00:20:59;127.63;;;45.47;;
75746;SDS011;64363;52.198;21.020;2023-03-01T00:23:25;145.93;;;49.53;;
75746;SDS011;64363;52.198;21.020;2023-03-01T00:25:52;125.65;;;46.33;;
75746;SDS011;64363;52.198;21.020;2023-03-01T00:28:17;138.90;;;45.88;;
75746;SDS011;64363;52.198;21.020;2023-03-01T00:30:44;141.73;;;46.05;;
75746;SDS011;64363;52.198;21.020;2023-03-01T00:33:10;120.07;;;47.75;;
75746;SDS011;64363;52.198;21.020;2023-03-01T00:35:35;144.55;;;47.88;;
75746;SDS011;64363;52.198;21.020;2023-03-01T00:38:01;131.10;;;46.05;;
75746;SDS011;64363;52.198;21.020;2023-03-01T00:40:28;140.57;;;45.72;;
75746;SDS011;64363;52.198;21.020;2023-03-01T00:42:55;143.55;;;49.30;;
75746;SDS011;64363;52.198;21.020;2023-03-01T00:45:21;137.27;;;46.28;;
75746;SDS011;64363;52.198;21.020;2023-03-01T00:47:47;127.93;;;45.75;;
75746;SDS011;64363;52.198;21.020;2023-03-01T00:50:14;140.88;;;48.35;;
75746;SDS011;64363;52.198;21.020;2023-03-01T00:52:40;128.88;;;45.58;;
75746;SDS011;64363;52.198;21.020;2023-03-01T00:55:06;127.25;;;45.53;;
75746;SDS011;64363;52.198;21.020;2023-03-01T00:57:32;138.00;;;47.53;;
75746;SDS011;64363;52.198;21.020;2023-03-01T00:59:58;132.07;;;46.95;;
75746;SDS011;64363;52.198;21.020;2023-03-01T01:02:24;123.93;;;43.15;;
75746;SDS011;64363;52.198;21.020;2023-03-01T01:04:51;123.90;;;44.20;;
75746;SDS011;64363;52.198;21.020;2023-03-01T01:07:17;116.32;;;40.03;;
75746;SDS011;64363;52.198;21.020;2023-03-01T01:09:45;134.48;;;42.80;;
75746;SDS011;64363;52.198;21.020;2023-03-01T01:12:11;131.40;;;45.55;;
75746;SDS011;64363;52.198;21.020;2023-03-01T01:14:38;115.10;;;41.85;;
75746;SDS011;64363;52.198;21.020;2023-03-01T01:17:03;123.03;;;41.85;;
75746;SDS011;64363;52.198;21.020;2023-03-01T01:19:30;115.63;;;40.03;;
75746;SDS011;64363;52.198;21.020;2023-03-01T01:21:56;114.53;;;40.28;;
75746;SDS011;64363;52.198;21.020;2023-03-01T01:24:22;120.20;;;40.95;;
75746;SDS011;64363;52.198;21.020;2023-03-01T01:26:47;114.70;;;41.33;;
75746;SDS011;64363;52.198;21.020;2023-03-01T01:29:14;120.43;;;42.92;;
75746;SDS011;64363;52.198;21.020;2023-03-01T01:31:40;116.63;;;40.63;;
75746;SDS011;64363;52.198;21.020;2023-03-01T01:34:08;113.97;;;40.38;;
75746;SDS011;64363;52.198;21.020;2023-03-01T01:36:37;118.18;;;41.72;;
75746;SDS011;64363;52.198;21.020;2023-03-01T01:39:03;114.20;;;38.95;;
75746;SDS011;64363;52.198;21.020;2023-03-01T01:41:29;117.82;;;40.08;;
75746;SDS011;64363;52.198;21.020;2023-03-01T01:44:18;118.45;;;37.80;;
75746;SDS011;64363;52.198;21.020;2023-03-01T01:46:59;105.35;;;38.08;;
75746;SDS011;64363;52.198;21.020;2023-03-01T01:51:56;114.30;;;39.85;;
75746;SDS011;64363;52.198;21.020;2023-03-01T01:54:36;111.65;;;41.53;;
75746;SDS011;64363;52.198;21.020;2023-03-01T01:57:07;107.28;;;38.55;;
75746;SDS011;64363;52.198;21.020;2023-03-01T01:59:38;97.90;;;36.50;;
75746;SDS011;64363;52.198;21.020;2023-03-01T02:02:06;107.05;;;35.65;;
75746;SDS011;64363;52.198;21.020;2023-03-01T02:04:32;112.60;;;38.67;;
75746;SDS011;64363;52.198;21.020;2023-03-01T02:07:00;107.93;;;38.47;;
75746;SDS011;64363;52.198;21.020;2023-03-01T02:09:30;111.78;;;38.50;;
75746;SDS011;64363;52.198;21.020;2023-03-01T02:11:57;117.13;;;39.45;;
75746;SDS011;64363;52.198;21.020;2023-03-01T02:14:23;120.82;;;38.60;;
75746;SDS011;64363;52.198;21.020;2023-03-01T02:16:49;106.95;;;39.10;;
75746;SDS011;64363;52.198;21.020;2023-03-01T02:19:20;107.65;;;39.97;;
75746;SDS011;64363;52.198;21.020;2023-03-01T02:22:13;116.68;;;40.42;;
75746;SDS011;64363;52.198;21.020;2023-03-01T02:27:13;117.95;;;39.85;;
75746;SDS011;64363;52.198;21.020;2023-03-01T02:29:39;114.60;;;39.35;;
75746;SDS011;64363;52.198;21.020;2023-03-01T02:32:04;111.78;;;39.17;;
75746;SDS011;64363;52.198;21.020;2023-03-01T02:34:31;115.45;;;41.35;;
75746;SDS011;64363;52.198;21.020;2023-03-01T02:37:03;113.93;;;41.47;;
75746;SDS011;64363;52.198;21.020;2023-03-01T02:39:34;119.50;;;42.42;;
75746;SDS011;64363;52.198;21.020;2023-03-01T02:42:07;119.18;;;41.13;;
75746;SDS011;64363;52.198;21.020;2023-03-01T02:44:37;120.18;;;39.20;;
75746;SDS011;64363;52.198;21.020;2023-03-01T02:47:03;108.30;;;38.65;;
75746;SDS011;64363;52.198;21.020;2023-03-01T02:49:32;120.40;;;40.97;;
75746;SDS011;64363;52.198;21.020;2023-03-01T02:57:25;120.57;;;38.72;;
75746;SDS011;64363;52.198;21.020;2023-03-01T02:59:57;110.30;;;37.58;;
75746;SDS011;64363;52.198;21.020;2023-03-01T03:02:32;121.80;;;41.00;;
75746;SDS011;64363;52.198;21.020;2023-03-01T03:07:32;119.53;;;39.50;;
75746;SDS011;64363;52.198;21.020;2023-03-01T03:10:00;99.97;;;37.25;;
75746;SDS011;64363;52.198;21.020;2023-03-01T03:12:26;111.97;;;39.13;;
75746;SDS011;64363;52.198;21.020;2023-03-01T03:14:52;109.53;;;39.40;;
75746;SDS011;64363;52.198;21.020;2023-03-01T03:17:17;111.85;;;38.75;;
75746;SDS011;64363;52.198;21.020;2023-03-01T03:19:43;112.95;;;40.38;;
75746;SDS011;64363;52.198;21.020;2023-03-01T03:22:11;113.65;;;39.25;;
75746;SDS011;64363;52.198;21.020;2023-03-01T03:24:37;122.85;;;43.97;;
75746;SDS011;64363;52.198;21.020;2023-03-01T03:27:03;118.25;;;39.95;;
75746;SDS011;64363;52.198;21.020;2023-03-01T03:29:30;116.43;;;40.17;;
75746;SDS011;64363;52.198;21.020;2023-03-01T03:31:56;115.28;;;37.38;;
75746;SDS011;64363;52.198;21.020;2023-03-01T03:34:22;114.65;;;41.78;;
75746;SDS011;64363;52.198;21.020;2023-03-01T03:36:52;106.53;;;37.17;;
75746;SDS011;64363;52.198;21.020;2023-03-01T03:39:25;101.38;;;35.38;;
75746;SDS011;64363;52.198;21.020;2023-03-01T03:41:52;110.00;;;39.65;;
75746;SDS011;64363;52.198;21.020;2023-03-01T03:44:19;105.10;;;39.08;;
75746;SDS011;64363;52.198;21.020;2023-03-01T03:46:45;112.75;;;37.55;;
75746;SDS011;64363;52.198;21.020;2023-03-01T03:49:11;107.60;;;36.83;;
75746;SDS011;64363;52.198;21.020;2023-03-01T03:51:36;113.13;;;41.72;;
75746;SDS011;64363;52.198;21.020;2023-03-01T03:54:02;103.53;;;37.25;;
75746;SDS011;64363;52.198;21.020;2023-03-01T03:56:28;105.55;;;37.47;;
75746;SDS011;64363;52.198;21.020;2023-03-01T03:58:54;105.95;;;36.25;;
75746;SDS011;64363;52.198;21.020;2023-03-01T04:01:19;114.03;;;39.15;;
75746;SDS011;64363;52.198;21.020;2023-03-01T04:03:45;103.88;;;37.65;;
75746;SDS011;64363;52.198;21.020;2023-03-01T04:06:13;114.35;;;39.17;;
75746;SDS011;64363;52.198;21.020;2023-03-01T04:08:40;108.30;;;38.17;;
75746;SDS011;64363;52.198;21.020;2023-03-01T04:11:06;112.25;;;40.42;;
75746;SDS011;64363;52.198;21.020;2023-03-01T04:13:51;114.97;;;38.67;;
75746;SDS011;64363;52.198;21.020;2023-03-01T04:16:18;108.63;;;38.08;;
75746;SDS011;64363;52.198;21.020;2023-03-01T04:18:45;114.53;;;40.28;;
75746;SDS011;64363;52.198;21.020;2023-03-01T04:21:11;103.65;;;36.40;;
75746;SDS011;64363;52.198;21.020;2023-03-01T04:23:37;113.10;;;40.28;;
75746;SDS011;64363;52.198;21.020;2023-03-01T04:26:03;108.85;;;38.60;;
75746;SDS011;64363;52.198;21.020;2023-03-01T04:28:30;114.22;;;38.70;;
75746;SDS011;64363;52.198;21.020;2023-03-01T04:31:05;110.53;;;36.88;;
75746;SDS011;64363;52.198;21.020;2023-03-01T04:33:39;101.32;;;38.05;;
75746;SDS011;64363;52.198;21.020;2023-03-01T04:36:06;121.25;;;41.17;;
75746;SDS011;64363;52.198;21.020;2023-03-01T04:38:34;107.20;;;37.40;;
75746;SDS011;64363;52.198;21.020;2023-03-01T04:41:03;128.55;;;40.88;;
75746;SDS011;64363;52.198;21.020;2023-03-01T04:43:33;115.15;;;37.95;;
75746;SDS011;64363;52.198;21.020;2023-03-01T04:46:00;109.35;;;36.55;;
75746;SDS011;64363;52.198;21.020;2023-03-01T04:48:28;93.15;;;35.70;;
75746;SDS011;64363;52.198;21.020;2023-03-01T04:50:54;105.20;;;37.33;;
75746;SDS011;64363;52.198;21.020;2023-03-01T04:53:20;116.38;;;38.72;;
75746;SDS011;64363;52.198;21.020;2023-03-01T04:55:46;122.05;;;39.28;;
75746;SDS011;64363;52.198;21.020;2023-03-01T04:58:11;121.97;;;38.38;;
75746;SDS011;64363;52.198;21.020;2023-03-01T05:00:37;122.07;;;41.13;;
75746;SDS011;64363;52.198;21.020;2023-03-01T05:03:03;106.97;;;39.28;;
75746;SDS011;64363;52.198;21.020;2023-03-01T05:05:30;116.80;;;39.10;;
75746;SDS011;64363;52.198;21.020;2023-03-01T05:08:05;113.53;;;39.97;;
75746;SDS011;64363;52.198;21.020;2023-03-01T05:10:32;117.28;;;39.80;;
75746;SDS011;64363;52.198;21.020;2023-03-01T05:13:01;127.13;;;42.03;;
75746;SDS011;64363;52.198;21.020;2023-03-01T05:15:28;135.13;;;43.90;;
75746;SDS011;64363;52.198;21.020;2023-03-01T05:17:56;105.18;;;38.83;;
75746;SDS011;64363;52.198;21.020;2023-03-01T05:20:25;120.13;;;40.85;;
75746;SDS011;64363;52.198;21.020;2023-03-01T05:22:55;104.47;;;35.97;;
75746;SDS011;64363;52.198;21.020;2023-03-01T05:25:24;122.35;;;39.88;;
75746;SDS011;64363;52.198;21.020;2023-03-01T05:27:50;117.78;;;37.78;;
75746;SDS011;64363;52.198;21.020;2023-03-01T05:30:16;112.13;;;39.00;;
75746;SDS011;64363;52.198;21.020;2023-03-01T05:32:44;124.68;;;41.58;;
75746;SDS011;64363;52.198;21.020;2023-03-01T05:35:15;119.47;;;40.47;;
75746;SDS011;64363;52.198;21.020;2023-03-01T05:37:43;111.28;;;37.70;;
75746;SDS011;64363;52.198;21.020;2023-03-01T05:40:11;97.93;;;35.40;;
75746;SDS011;64363;52.198;21.020;2023-03-01T05:42:45;104.68;;;39.28;;
75746;SDS011;64363;52.198;21.020;2023-03-01T05:45:13;109.07;;;37.17;;
75746;SDS011;64363;52.198;21.020;2023-03-01T05:47:40;103.80;;;35.40;;
75746;SDS011;64363;52.198;21.020;2023-03-01T05:50:13;121.18;;;38.92;;
75746;SDS011;64363;52.198;21.020;2023-03-01T05:52:45;113.47;;;36.95;;
75746;SDS011;64363;52.198;21.020;2023-03-01T05:55:16;107.40;;;38.65;;
75746;SDS011;64363;52.198;21.020;2023-03-01T05:57:43;105.20;;;37.65;;
75746;SDS011;64363;52.198;21.020;2023-03-01T06:00:09;105.95;;;37.03;;
75746;SDS011;64363;52.198;21.020;2023-03-01T06:02:36;107.05;;;39.83;;
75746;SDS011;64363;52.198;21.020;2023-03-01T06:05:03;105.47;;;37.65;;
75746;SDS011;64363;52.198;21.020;2023-03-01T06:07:33;104.93;;;37.15;;
75746;SDS011;64363;52.198;21.020;2023-03-01T06:10:00;109.78;;;35.20;;
75746;SDS011;64363;52.198;21.020;2023-03-01T06:12:29;110.35;;;37.47;;
75746;SDS011;64363;52.198;21.020;2023-03-01T06:17:22;104.78;;;35.08;;
75746;SDS011;64363;52.198;21.020;2023-03-01T06:19:47;101.97;;;34.33;;
75746;SDS011;64363;52.198;21.020;2023-03-01T06:22:13;117.28;;;38.65;;
75746;SDS011;64363;52.198;21.020;2023-03-01T06:24:39;110.35;;;39.17;;
75746;SDS011;64363;52.198;21.020;2023-03-01T06:27:04;109.47;;;35.10;;
75746;SDS011;64363;52.198;21.020;2023-03-01T06:29:30;103.03;;;38.30;;
75746;SDS011;64363;52.198;21.020;2023-03-01T06:31:56;115.18;;;38.05;;
75746;SDS011;64363;52.198;21.020;2023-03-01T06:34:21;93.43;;;36.25;;
75746;SDS011;64363;52.198;21.020;2023-03-01T06:36:47;97.03;;;35.25;;
75746;SDS011;64363;52.198;21.020;2023-03-01T06:39:13;98.75;;;38.03;;
75746;SDS011;64363;52.198;21.020;2023-03-01T06:41:39;106.35;;;37.85;;
75746;SDS011;64363;52.198;21.020;2023-03-01T06:44:04;116.32;;;38.55;;
75746;SDS011;64363;52.198;21.020;2023-03-01T06:46:30;108.00;;;36.78;;
75746;SDS011;64363;52.198;21.020;2023-03-01T06:48:56;110.65;;;37.95;;
75746;SDS011;64363;52.198;21.020;2023-03-01T06:51:22;102.13;;;37.03;;
75746;SDS011;64363;52.198;21.020;2023-03-01T06:53:47;94.93;;;37.67;;
75746;SDS011;64363;52.198;21.020;2023-03-01T06:56:13;99.20;;;35.58;;
75746;SDS011;64363;52.198;21.020;2023-03-01T06:58:40;101.45;;;34.85;;
75746;SDS011;64363;52.198;21.020;2023-03-01T07:01:08;100.72;;;36.13;;
75746;SDS011;64363;52.198;21.020;2023-03-01T07:03:34;115.35;;;38.38;;
75746;SDS011;64363;52.198;21.020;2023-03-01T07:06:00;110.43;;;38.63;;
75746;SDS011;64363;52.198;21.020;2023-03-01T07:08:26;106.70;;;36.58;;
75746;SDS011;64363;52.198;21.020;2023-03-01T07:10:55;100.40;;;36.45;;
75746;SDS011;64363;52.198;21.020;2023-03-01T07:13:22;101.00;;;37.97;;
75746;SDS011;64363;52.198;21.020;2023-03-01T07:15:47;107.20;;;37.50;;
75746;SDS011;64363;52.198;21.020;2023-03-01T07:18:13;98.22;;;37.83;;
75746;SDS011;64363;52.198;21.020;2023-03-01T07:20:39;96.38;;;38.03;;
75746;SDS011;64363;52.198;21.020;2023-03-01T07:23:05;97.05;;;36.42;;
75746;SDS011;64363;52.198;21.020;2023-03-01T07:25:31;97.30;;;37.20;;
75746;SDS011;64363;52.198;21.020;2023-03-01T07:27:57;101.35;;;38.67;;
75746;SDS011;64363;52.198;21.020;2023-03-01T07:30:23;103.60;;;35.72;;
75746;SDS011;64363;52.198;21.020;2023-03-01T07:32:52;103.22;;;37.55;;
75746;SDS011;64363;52.198;21.020;2023-03-01T07:35:19;96.75;;;35.65;;
75746;SDS011;64363;52.198;21.020;2023-03-01T07:37:44;87.70;;;34.17;;
75746;SDS011;64363;52.198;21.020;2023-03-01T07:40:10;95.93;;;36.53;;
75746;SDS011;64363;52.198;21.020;2023-03-01T07:42:36;95.88;;;32.67;;
75746;SDS011;64363;52.198;21.020;2023-03-01T07:45:03;90.72;;;32.80;;
75746;SDS011;64363;52.198;21.020;2023-03-01T07:47:30;100.05;;;34.22;;
75746;SDS011;64363;52.198;21.020;2023-03-01T07:49:56;81.78;;;31.88;;
75746;SDS011;64363;52.198;21.020;2023-03-01T07:52:21;93.20;;;30.77;;
75746;SDS011;64363;52.198;21.020;2023-03-01T07:54:47;94.70;;;32.03;;
75746;SDS011;64363;52.198;21.020;2023-03-01T07:57:13;92.15;;;33.15;;
75746;SDS011;64363;52.198;21.020;2023-03-01T07:59:38;89.78;;;32.05;;
75746;SDS011;64363;52.198;21.020;2023-03-01T08:02:05;87.93;;;33.22;;
75746;SDS011;64363;52.198;21.020;2023-03-01T08:04:31;83.70;;;30.60;;
75746;SDS011;64363;52.198;21.020;2023-03-01T08:06:58;86.18;;;31.50;;
75746;SDS011;64363;52.198;21.020;2023-03-01T08:09:24;100.28;;;31.30;;
75746;SDS011;64363;52.198;21.020;2023-03-01T08:11:50;74.13;;;27.33;;
75746;SDS011;64363;52.198;21.020;2023-03-01T08:14:16;80.72;;;28.25;;
75746;SDS011;64363;52.198;21.020;2023-03-01T08:16:41;63.08;;;25.63;;
75746;SDS011;64363;52.198;21.020;2023-03-01T08:19:08;71.53;;;27.05;;
75746;SDS011;64363;52.198;21.020;2023-03-01T08:21:36;68.95;;;27.65;;
75746;SDS011;64363;52.198;21.020;2023-03-01T08:24:03;71.78;;;25.42;;
75746;SDS011;64363;52.198;21.020;2023-03-01T08:26:31;62.53;;;24.80;;
75746;SDS011;64363;52.198;21.020;2023-03-01T08:28:57;66.45;;;24.70;;
75746;SDS011;64363;52.198;21.020;2023-03-01T08:31:25;65.95;;;26.83;;
75746;SDS011;64363;52.198;21.020;2023-03-01T08:33:59;72.38;;;25.40;;
75746;SDS011;64363;52.198;21.020;2023-03-01T08:36:27;62.92;;;28.52;;
75746;SDS011;64363;52.198;21.020;2023-03-01T08:38:55;75.00;;;26.20;;
75746;SDS011;64363;52.198;21.020;2023-03-01T08:41:21;75.13;;;28.35;;
75746;SDS011;64363;52.198;21.020;2023-03-01T08:43:47;65.90;;;25.13;;
75746;SDS011;64363;52.198;21.020;2023-03-01T08:46:13;67.95;;;25.23;;
75746;SDS011;64363;52.198;21.020;2023-03-01T08:48:39;71.20;;;25.40;;
75746;SDS011;64363;52.198;21.020;2023-03-01T08:51:17;69.32;;;26.40;;
75746;SDS011;64363;52.198;21.020;2023-03-01T08:53:44;74.97;;;27.73;;
75746;SDS011;64363;52.198;21.020;2023-03-01T08:56:10;65.22;;;25.38;;
75746;SDS011;64363;52.198;21.020;2023-03-01T08:58:37;71.13;;;27.15;;
75746;SDS011;64363;52.198;21.020;2023-03-01T09:01:09;71.63;;;26.70;;
75746;SDS011;64363;52.198;21.020;2023-03-01T09:03:36;70.72;;;26.45;;
75746;SDS011;64363;52.198;21.020;2023-03-01T09:06:02;65.97;;;25.25;;
75746;SDS011;64363;52.198;21.020;2023-03-01T09:08:29;71.82;;;26.98;;
75746;SDS011;64363;52.198;21.020;2023-03-01T09:10:55;73.90;;;28.13;;
75746;SDS011;64363;52.198;21.020;2023-03-01T09:13:21;66.72;;;24.52;;
75746;SDS011;64363;52.198;21.020;2023-03-01T09:15:50;76.38;;;28.55;;
75746;SDS011;64363;52.198;21.020;2023-03-01T09:18:16;69.85;;;26.25;;
75746;SDS011;64363;52.198;21.020;2023-03-01T09:20:41;74.20;;;26.33;;
75746;SDS011;64363;52.198;21.020;2023-03-01T09:23:07;62.20;;;24.67;;
75746;SDS011;64363;52.198;21.020;2023-03-01T09:25:33;83.15;;;27.45;;
75746;SDS011;64363;52.198;21.020;2023-03-01T09:28:00;72.35;;;28.10;;
75746;SDS011;64363;52.198;21.020;2023-03-01T09:30:26;73.40;;;26.08;;
75746;SDS011;64363;52.198;21.020;2023-03-01T09:32:51;67.85;;;27.17;;
75746;SDS011;64363;52.198;21.020;2023-03-01T09:35:17;74.28;;;26.70;;
75746;SDS011;64363;52.198;21.020;2023-03-01T09:37:45;71.93;;;26.60;;
75746;SDS011;64363;52.198;21.020;2023-03-01T09:40:15;66.68;;;25.30;;
75746;SDS011;64363;52.198;21.020;2023-03-01T09:42:55;59.13;;;24.55;;
75746;SDS011;64363;52.198;21.020;2023-03-01T09:45:33;65.15;;;26.10;;
75746;SDS011;64363;52.198;21.020;2023-03-01T09:48:01;67.70;;;24.85;;
75746;SDS011;64363;52.198;21.020;2023-03-01T09:50:32;54.03;;;23.70;;
75746;SDS011;64363;52.198;21.020;2023-03-01T10:06:43;51.55;;;20.75;;
75746;SDS011;64363;52.198;21.020;2023-03-01T10:09:15;59.92;;;22.00;;
75746;SDS011;64363;52.198;21.020;2023-03-01T10:11:44;63.22;;;21.75;;
75746;SDS011;64363;52.198;21.020;2023-03-01T10:17:04;56.03;;;22.70;;
75746;SDS011;64363;52.198;21.020;2023-03-01T10:19:42;56.33;;;22.38;;
75746;SDS011;64363;52.198;21.020;2023-03-01T10:22:13;49.10;;;18.88;;
75746;SDS011;64363;52.198;21.020;2023-03-01T10:24:43;56.97;;;21.77;;
75746;SDS011;64363;52.198;21.020;2023-03-01T10:27:17;51.28;;;21.88;;
75746;SDS011;64363;52.198;21.020;2023-03-01T10:29:49;47.63;;;19.52;;
75746;SDS011;64363;52.198;21.020;2023-03-01T10:32:36;48.78;;;19.25;;
75746;SDS011;64363;52.198;21.020;2023-03-01T10:38:08;44.60;;;17.80;;
75746;SDS011;64363;52.198;21.020;2023-03-01T10:40:36;40.95;;;18.35;;
75746;SDS011;64363;52.198;21.020;2023-03-01T10:43:16;48.55;;;18.48;;
75746;SDS011;64363;52.198;21.020;2023-03-01T10:45:42;44.38;;;18.88;;
75746;SDS011;64363;52.198;21.020;2023-03-01T10:48:12;47.72;;;20.00;;
75746;SDS011;64363;52.198;21.020;2023-03-01T10:50:39;40.53;;;16.25;;
75746;SDS011;64363;52.198;21.020;2023-03-01T10:55:58;39.30;;;17.10;;
75746;SDS011;64363;52.198;21.020;2023-03-01T10:58:26;40.45;;;16.95;;
75746;SDS011;64363;52.198;21.020;2023-03-01T11:03:24;35.95;;;16.48;;
75746;SDS011;64363;52.198;21.020;2023-03-01T11:05:56;41.30;;;17.20;;
75746;SDS011;64363;52.198;21.020;2023-03-01T11:08:32;40.45;;;16.40;;
75746;SDS011;64363;52.198;21.020;2023-03-01T11:13:58;39.38;;;17.83;;
75746;SDS011;64363;52.198;21.020;2023-03-01T11:16:38;41.92;;;18.05;;
75746;SDS011;64363;52.198;21.020;2023-03-01T11:21:35;46.67;;;16.13;;
75746;SDS011;64363;52.198;21.020;2023-03-01T11:24:05;37.90;;;15.68;;
75746;SDS011;64363;52.198;21.020;2023-03-01T11:26:37;43.83;;;16.33;;
75746;SDS011;64363;52.198;21.020;2023-03-01T11:29:09;32.28;;;13.80;;
75746;SDS011;64363;52.198;21.020;2023-03-01T11:31:43;33.15;;;14.32;;
75746;SDS011;64363;52.198;21.020;2023-03-01T11:34:14;39.08;;;14.02;;
75746;SDS011;64363;52.198;21.020;2023-03-01T11:36:59;36.20;;;14.20;;
75746;SDS011;64363;52.198;21.020;2023-03-01T11:39:31;35.33;;;14.35;;
75746;SDS011;64363;52.198;21.020;2023-03-01T11:44:39;35.15;;;13.13;;
75746;SDS011;64363;52.198;21.020;2023-03-01T11:47:10;37.55;;;16.00;;
75746;SDS011;64363;52.198;21.020;2023-03-01T11:52:35;37.15;;;16.35;;
75746;SDS011;64363;52.198;21.020;2023-03-01T11:55:17;39.28;;;14.82;;
75746;SDS011;64363;52.198;21.020;2023-03-01T11:58:11;37.92;;;13.73;;
75746;SDS011;64363;52.198;21.020;2023-03-01T12:14:39;37.30;;;16.77;;
75746;SDS011;64363;52.198;21.020;2023-03-01T12:17:18;38.47;;;15.90;;
75746;SDS011;64363;52.198;21.020;2023-03-01T12:20:02;36.53;;;15.02;;
75746;SDS011;64363;52.198;21.020;2023-03-01T12:28:22;36.25;;;14.25;;
75746;SDS011;64363;52.198;21.020;2023-03-01T12:40:17;29.70;;;14.25;;
75746;SDS011;64363;52.198;21.020;2023-03-01T12:42:58;32.88;;;14.27;;
75746;SDS011;64363;52.198;21.020;2023-03-01T12:48:36;35.17;;;14.88;;
75746;SDS011;64363;52.198;21.020;2023-03-01T12:51:08;32.70;;;13.95;;
75746;SDS011;64363;52.198;21.020;2023-03-01T12:53:40;34.53;;;14.68;;
75746;SDS011;64363;52.198;21.020;2023-03-01T12:56:10;37.40;;;15.35;;
75746;SDS011;64363;52.198;21.020;2023-03-01T12:58:41;32.28;;;14.25;;
75746;SDS011;64363;52.198;21.020;2023-03-01T13:11:52;36.45;;;15.93;;
75746;SDS011;64363;52.198;21.020;2023-03-01T13:16:53;35.88;;;15.75;;
75746;SDS011;64363;52.198;21.020;2023-03-01T13:19:20;45.75;;;15.52;;
75746;SDS011;64363;52.198;21.020;2023-03-01T13:21:49;36.88;;;15.02;;
75746;SDS011;64363;52.198;21.020;2023-03-01T13:24:32;40.97;;;15.40;;
75746;SDS011;64363;52.198;21.020;2023-03-01T13:29:44;38.38;;;15.05;;
75746;SDS011;64363;52.198;21.020;2023-03-01T13:32:23;36.80;;;15.25;;
75746;SDS011;64363;52.198;21.020;2023-03-01T13:34:56;32.35;;;15.10;;
75746;SDS011;64363;52.198;21.020;2023-03-01T13:37:36;33.33;;;14.63;;
75746;SDS011;64363;52.198;21.020;2023-03-01T13:42:55;25.65;;;12.80;;
75746;SDS011;64363;52.198;21.020;2023-03-01T13:48:18;34.17;;;15.50;;
75746;SDS011;64363;52.198;21.020;2023-03-01T13:50:54;37.80;;;16.33;;
75746;SDS011;64363;52.198;21.020;2023-03-01T13:53:25;34.78;;;14.88;;
75746;SDS011;64363;52.198;21.020;2023-03-01T13:55:55;34.42;;;14.70;;
75746;SDS011;64363;52.198;21.020;2023-03-01T14:03:24;36.47;;;15.68;;
75746;SDS011;64363;52.198;21.020;2023-03-01T14:06:04;34.95;;;14.60;;
75746;SDS011;64363;52.198;21.020;2023-03-01T14:08:33;32.28;;;15.00;;
75746;SDS011;64363;52.198;21.020;2023-03-01T14:11:20;34.05;;;15.27;;
75746;SDS011;64363;52.198;21.020;2023-03-01T14:13:51;33.05;;;14.48;;
75746;SDS011;64363;52.198;21.020;2023-03-01T14:16:40;39.08;;;17.17;;
75746;SDS011;64363;52.198;21.020;2023-03-01T14:19:18;29.45;;;15.38;;
75746;SDS011;64363;52.198;21.020;2023-03-01T14:21:58;38.63;;;17.08;;
75746;SDS011;64363;52.198;21.020;2023-03-01T14:24:46;33.25;;;15.23;;
75746;SDS011;64363;52.198;21.020;2023-03-01T14:27:15;34.88;;;15.13;;
75746;SDS011;64363;52.198;21.020;2023-03-01T14:29:41;33.67;;;13.98;;
75746;SDS011;64363;52.198;21.020;2023-03-01T14:32:08;30.65;;;13.70;;
75746;SDS011;64363;52.198;21.020;2023-03-01T14:34:44;31.52;;;14.30;;
75746;SDS011;64363;52.198;21.020;2023-03-01T14:37:31;36.92;;;14.70;;
75746;SDS011;64363;52.198;21.020;2023-03-01T14:39:58;35.40;;;15.35;;
75746;SDS011;64363;52.198;21.020;2023-03-01T14:42:29;31.38;;;15.80;;
75746;SDS011;64363;52.198;21.020;2023-03-01T14:44:59;36.40;;;14.75;;
75746;SDS011;64363;52.198;21.020;2023-03-01T14:49:58;30.73;;;15.73;;
75746;SDS011;64363;52.198;21.020;2023-03-01T14:52:34;35.00;;;16.30;;
75746;SDS011;64363;52.198;21.020;2023-03-01T14:55:04;36.90;;;14.85;;
75746;SDS011;64363;52.198;21.020;2023-03-01T14:57:32;37.63;;;15.73;;
75746;SDS011;64363;52.198;21.020;2023-03-01T14:59:58;33.63;;;15.13;;
75746;SDS011;64363;52.198;21.020;2023-03-01T15:02:30;31.95;;;16.05;;
75746;SDS011;64363;52.198;21.020;2023-03-01T15:04:58;43.45;;;16.88;;
75746;SDS011;64363;52.198;21.020;2023-03-01T15:07:31;34.42;;;17.05;;
75746;SDS011;64363;52.198;21.020;2023-03-01T15:10:01;33.97;;;15.18;;
75746;SDS011;64363;52.198;21.020;2023-03-01T15:14:53;36.97;;;15.88;;
75746;SDS011;64363;52.198;21.020;2023-03-01T15:17:27;39.58;;;15.68;;
75746;SDS011;64363;52.198;21.020;2023-03-01T15:19:56;35.35;;;15.57;;
75746;SDS011;64363;52.198;21.020;2023-03-01T15:22:24;38.00;;;16.10;;
75746;SDS011;64363;52.198;21.020;2023-03-01T15:24:52;39.55;;;16.35;;
75746;SDS011;64363;52.198;21.020;2023-03-01T15:27:19;36.38;;;15.43;;
75746;SDS011;64363;52.198;21.020;2023-03-01T15:29:52;37.25;;;15.65;;
75746;SDS011;64363;52.198;21.020;2023-03-01T15:34:51;35.40;;;17.35;;
75746;SDS011;64363;52.198;21.020;2023-03-01T15:42:45;39.38;;;16.70;;
75746;SDS011;64363;52.198;21.020;2023-03-01T15:47:46;47.22;;;17.83;;
75746;SDS011;64363;52.198;21.020;2023-03-01T15:50:16;41.35;;;16.65;;
75746;SDS011;64363;52.198;21.020;2023-03-01T15:52:44;49.72;;;17.45;;
75746;SDS011;64363;52.198;21.020;2023-03-01T15:55:17;41.42;;;16.88;;
75746;SDS011;64363;52.198;21.020;2023-03-01T16:00:11;40.67;;;16.60;;
75746;SDS011;64363;52.198;21.020;2023-03-01T16:02:39;45.67;;;18.85;;
75746;SDS011;64363;52.198;21.020;2023-03-01T16:05:08;46.63;;;17.50;;
75746;SDS011;64363;52.198;21.020;2023-03-01T16:07:42;43.13;;;15.80;;
75746;SDS011;64363;52.198;21.020;2023-03-01T16:10:08;42.17;;;18.02;;
75746;SDS011;64363;52.198;21.020;2023-03-01T16:12:34;51.67;;;19.45;;
75746;SDS011;64363;52.198;21.020;2023-03-01T16:15:00;47.53;;;17.75;;
75746;SDS011;64363;52.198;21.020;2023-03-01T16:17:25;47.53;;;19.48;;
75746;SDS011;64363;52.198;21.020;2023-03-01T16:19:51;54.55;;;19.75;;
75746;SDS011;64363;52.198;21.020;2023-03-01T16:22:17;47.00;;;18.55;;
75746;SDS011;64363;52.198;21.020;2023-03-01T16:24:46;45.85;;;18.40;;